sensor_id;sensor_type;location;lat;lon;timestamp;pressure;altitude;pressure_sealevel;temperature;humidity
12358;BME280;6243;51.244;6.774;2023-02-16T00:01:15;149616.28;;;8.55;100.00
12358;BME280;6243;51.244;6.774;2023-02-16T00:03:41;149598.50;;;8.48;100.00
12358;BME280;6243;51.244;6.774;2023-02-16T00:06:06;149566.75;;;8.35;100.00
12358;BME280;6243;51.244;6.774;2023-02-16T00:08:32;149571.84;;;8.37;100.00
12358;BME280;6243;51.244;6.774;2023-02-16T00:10:57;149565.53;;;8.35;100.00
12358;BME280;6243;51.244;6.774;2023-02-16T00:13:26;149583.25;;;8.42;100.00
12358;BME280;6243;51.244;6.774;2023-02-16T00:15:52;149603.56;;;8.50;100.00
12358;BME280;6243;51.244;6.774;2023-02-16T00:18:20;149608.66;;;8.52;100.00
12358;BME280;6243;51.244;6.774;2023-02-16T00:20:47;149618.78;;;8.56;100.00
12358;BME280;6243;51.244;6.774;2023-02-16T00:23:13;149642.91;;;8.66;100.00
12358;BME280;6243;51.244;6.774;2023-02-16T00:25:39;149609.91;;;8.52;100.00
12358;BME280;6243;51.244;6.774;2023-02-16T00:28:10;149650.53;;;8.69;100.00
12358;BME280;6243;51.244;6.774;2023-02-16T00:30:38;149599.78;;;8.48;100.00
12358;BME280;6243;51.244;6.774;2023-02-16T00:33:07;149642.91;;;8.66;100.00
12358;BME280;6243;51.244;6.774;2023-02-16T00:35:34;149602.28;;;8.49;100.00
12358;BME280;6243;51.244;6.774;2023-02-16T00:38:00;149513.47;;;8.14;100.00
12358;BME280;6243;51.244;6.774;2023-02-16T00:40:25;149429.75;;;7.81;100.00
12358;BME280;6243;51.244;6.774;2023-02-16T00:42:51;149469.06;;;7.97;100.00
12358;BME280;6243;51.244;6.774;2023-02-16T00:45:18;149528.69;;;8.20;100.00
12358;BME280;6243;51.244;6.774;2023-02-16T00:47:46;149489.38;;;8.05;100.00
12358;BME280;6243;51.244;6.774;2023-02-16T00:50:17;149476.69;;;8.00;100.00
12358;BME280;6243;51.244;6.774;2023-02-16T00:52:45;149529.94;;;8.21;100.00
12358;BME280;6243;51.244;6.774;2023-02-16T00:55:13;149494.44;;;8.07;100.00
12358;BME280;6243;51.244;6.774;2023-02-16T00:57:42;149481.75;;;8.02;100.00
12358;BME280;6243;51.244;6.774;2023-02-16T01:00:15;149375.25;;;7.59;100.00
12358;BME280;6243;51.244;6.774;2023-02-16T01:02:43;149502.06;;;8.10;100.00
12358;BME280;6243;51.244;6.774;2023-02-16T01:05:09;149517.25;;;8.16;100.00
12358;BME280;6243;51.244;6.774;2023-02-16T01:07:34;149509.63;;;8.13;100.00
12358;BME280;6243;51.244;6.774;2023-02-16T01:10:02;149442.44;;;7.86;100.00
12358;BME280;6243;51.244;6.774;2023-02-16T01:12:28;149476.69;;;8.00;100.00
12358;BME280;6243;51.244;6.774;2023-02-16T01:14:54;149433.59;;;7.82;100.00
12358;BME280;6243;51.244;6.774;2023-02-16T01:17:20;149463.97;;;7.95;100.00
12358;BME280;6243;51.244;6.774;2023-02-16T01:19:46;149471.59;;;7.98;100.00
12358;BME280;6243;51.244;6.774;2023-02-16T01:22:12;149528.69;;;8.20;100.00
12358;BME280;6243;51.244;6.774;2023-02-16T01:24:37;149481.75;;;8.02;100.00
12358;BME280;6243;51.244;6.774;2023-02-16T01:27:04;149422.16;;;7.78;100.00
12358;BME280;6243;51.244;6.774;2023-02-16T01:29:30;149348.59;;;7.49;100.00
12358;BME280;6243;51.244;6.774;2023-02-16T01:31:55;149414.56;;;7.75;100.00
12358;BME280;6243;51.244;6.774;2023-02-16T01:34:21;149325.78;;;7.40;100.00
12358;BME280;6243;51.244;6.774;2023-02-16T01:36:47;149372.69;;;7.58;100.00
12358;BME280;6243;51.244;6.774;2023-02-16T01:39:14;149466.53;;;7.96;100.00
12358;BME280;6243;51.244;6.774;2023-02-16T01:41:49;149509.63;;;8.13;100.00
12358;BME280;6243;51.244;6.774;2023-02-16T01:44:24;149451.28;;;7.89;100.00
12358;BME280;6243;51.244;6.774;2023-02-16T01:46:51;149475.41;;;7.99;100.00
12358;BME280;6243;51.244;6.774;2023-02-16T01:49:19;149387.91;;;7.64;100.00
12358;BME280;6243;51.244;6.774;2023-02-16T01:51:50;149361.28;;;7.54;100.00
12358;BME280;6243;51.244;6.774;2023-02-16T01:54:27;149304.25;;;7.31;100.00
12358;BME280;6243;51.244;6.774;2023-02-16T01:56:57;149297.91;;;7.29;100.00
12358;BME280;6243;51.244;6.774;2023-02-16T01:59:30;149324.56;;;7.39;100.00
12358;BME280;6243;51.244;6.774;2023-02-16T02:01:59;149372.69;;;7.58;100.00
12358;BME280;6243;51.244;6.774;2023-02-16T02:04:28;149335.97;;;7.44;100.00
12358;BME280;6243;51.244;6.774;2023-02-16T02:06:58;149309.31;;;7.33;100.00
12358;BME280;6243;51.244;6.774;2023-02-16T02:09:25;149354.94;;;7.51;100.00
12358;BME280;6243;51.244;6.774;2023-02-16T02:11:58;149439.88;;;7.85;100.00
12358;BME280;6243;51.244;6.774;2023-02-16T02:14:29;149365.06;;;7.55;100.00
12358;BME280;6243;51.244;6.774;2023-02-16T02:16:57;149325.78;;;7.40;100.00
12358;BME280;6243;51.244;6.774;2023-02-16T02:19:23;149382.81;;;7.62;100.00
12358;BME280;6243;51.244;6.774;2023-02-16T02:22:06;149403.13;;;7.70;100.00
12358;BME280;6243;51.244;6.774;2023-02-16T02:25:03;149271.31;;;7.18;100.00
12358;BME280;6243;51.244;6.774;2023-02-16T02:27:38;149357.50;;;7.52;100.00
12358;BME280;6243;51.244;6.774;2023-02-16T02:30:17;149257.34;;;7.12;100.00
12358;BME280;6243;51.244;6.774;2023-02-16T02:32:55;149308.03;;;7.33;100.00
12358;BME280;6243;51.244;6.774;2023-02-16T02:35:36;149337.19;;;7.44;100.00
12358;BME280;6243;51.244;6.774;2023-02-16T02:38:11;149332.13;;;7.42;100.00
12358;BME280;6243;51.244;6.774;2023-02-16T02:40:47;149366.34;;;7.56;100.00
12358;BME280;6243;51.244;6.774;2023-02-16T02:43:21;149338.47;;;7.45;100.00
12358;BME280;6243;51.244;6.774;2023-02-16T02:45:50;149286.50;;;7.24;100.00
12358;BME280;6243;51.244;6.774;2023-02-16T02:48:18;149361.28;;;7.54;100.00
12358;BME280;6243;51.244;6.774;2023-02-16T02:50:49;149415.81;;;7.75;100.00
12358;BME280;6243;51.244;6.774;2023-02-16T02:53:16;149458.91;;;7.93;100.00
12358;BME280;6243;51.244;6.774;2023-02-16T02:55:45;149414.56;;;7.75;100.00
12358;BME280;6243;51.244;6.774;2023-02-16T02:58:14;149380.31;;;7.61;100.00
12358;BME280;6243;51.244;6.774;2023-02-16T03:00:43;149352.44;;;7.50;100.00
12358;BME280;6243;51.244;6.774;2023-02-16T03:03:12;149400.59;;;7.69;100.00
12358;BME280;6243;51.244;6.774;2023-02-16T03:05:42;149393.00;;;7.66;100.00
12358;BME280;6243;51.244;6.774;2023-02-16T03:08:11;149286.50;;;7.24;100.00
12358;BME280;6243;51.244;6.774;2023-02-16T03:10:41;149276.38;;;7.20;100.00
12358;BME280;6243;51.244;6.774;2023-02-16T03:13:13;149268.75;;;7.17;100.00
12358;BME280;6243;51.244;6.774;2023-02-16T03:15:43;149266.25;;;7.16;100.00
12358;BME280;6243;51.244;6.774;2023-02-16T03:18:11;149263.69;;;7.15;100.00
12358;BME280;6243;51.244;6.774;2023-02-16T03:20:39;149290.28;;;7.26;100.00
12358;BME280;6243;51.244;6.774;2023-02-16T03:23:06;149280.16;;;7.22;100.00
12358;BME280;6243;51.244;6.774;2023-02-16T03:25:34;149232.03;;;7.02;100.00
12358;BME280;6243;51.244;6.774;2023-02-16T03:28:03;149332.13;;;7.42;100.00
12358;BME280;6243;51.244;6.774;2023-02-16T03:30:30;149375.25;;;7.59;100.00
12358;BME280;6243;51.244;6.774;2023-02-16T03:32:57;149371.41;;;7.58;100.00
12358;BME280;6243;51.244;6.774;2023-02-16T03:35:23;149408.19;;;7.72;100.00
12358;BME280;6243;51.244;6.774;2023-02-16T03:37:49;149357.50;;;7.52;100.00
12358;BME280;6243;51.244;6.774;2023-02-16T03:40:16;149399.31;;;7.69;100.00
12358;BME280;6243;51.244;6.774;2023-02-16T03:42:47;149357.50;;;7.52;100.00
12358;BME280;6243;51.244;6.774;2023-02-16T03:45:13;149324.56;;;7.39;100.00
12358;BME280;6243;51.244;6.774;2023-02-16T03:47:38;149380.31;;;7.61;100.00
12358;BME280;6243;51.244;6.774;2023-02-16T03:50:06;149354.94;;;7.51;100.00
12358;BME280;6243;51.244;6.774;2023-02-16T03:52:32;149348.59;;;7.49;100.00
12358;BME280;6243;51.244;6.774;2023-02-16T03:54:58;149264.97;;;7.15;100.00
12358;BME280;6243;51.244;6.774;2023-02-16T03:57:23;149205.41;;;6.92;100.00
12358;BME280;6243;51.244;6.774;2023-02-16T03:59:49;149271.31;;;7.18;100.00
12358;BME280;6243;51.244;6.774;2023-02-16T04:02:14;149310.59;;;7.34;100.00
12358;BME280;6243;51.244;6.774;2023-02-16T04:04:40;149301.69;;;7.30;100.00
12358;BME280;6243;51.244;6.774;2023-02-16T04:07:06;149322.00;;;7.38;100.00
12358;BME280;6243;51.244;6.774;2023-02-16T04:09:32;149263.69;;;7.15;100.00
12358;BME280;6243;51.244;6.774;2023-02-16T04:11:57;149372.69;;;7.58;100.00
12358;BME280;6243;51.244;6.774;2023-02-16T04:14:23;149316.94;;;7.36;100.00
12358;BME280;6243;51.244;6.774;2023-02-16T04:16:48;149258.63;;;7.13;100.00
12358;BME280;6243;51.244;6.774;2023-02-16T04:19:14;149330.84;;;7.42;100.00
12358;BME280;6243;51.244;6.774;2023-02-16T04:21:39;149148.41;;;6.69;100.00
12358;BME280;6243;51.244;6.774;2023-02-16T04:24:07;149195.28;;;6.88;100.00
12358;BME280;6243;51.244;6.774;2023-02-16T04:26:32;149202.88;;;6.91;100.00
12358;BME280;6243;51.244;6.774;2023-02-16T04:28:58;149188.94;;;6.85;100.00
12358;BME280;6243;51.244;6.774;2023-02-16T04:31:23;149182.59;;;6.83;100.00
12358;BME280;6243;51.244;6.774;2023-02-16T04:33:49;149225.69;;;7.00;100.00
12358;BME280;6243;51.244;6.774;2023-02-16T04:36:15;149230.75;;;7.02;100.00
12358;BME280;6243;51.244;6.774;2023-02-16T04:38:40;149225.69;;;7.00;100.00
12358;BME280;6243;51.244;6.774;2023-02-16T04:41:07;149248.50;;;7.09;100.00
12358;BME280;6243;51.244;6.774;2023-02-16T04:43:33;149171.19;;;6.78;100.00
12358;BME280;6243;51.244;6.774;2023-02-16T04:45:58;149168.69;;;6.77;100.00
12358;BME280;6243;51.244;6.774;2023-02-16T04:48:24;149192.72;;;6.87;100.00
12358;BME280;6243;51.244;6.774;2023-02-16T04:50:49;149207.94;;;6.93;100.00
12358;BME280;6243;51.244;6.774;2023-02-16T04:53:15;149147.13;;;6.69;100.00
12358;BME280;6243;51.244;6.774;2023-02-16T04:55:44;149161.06;;;6.74;100.00
12358;BME280;6243;51.244;6.774;2023-02-16T04:58:11;149211.75;;;6.94;100.00
12358;BME280;6243;51.244;6.774;2023-02-16T05:00:37;149185.16;;;6.84;100.00
12358;BME280;6243;51.244;6.774;2023-02-16T05:03:02;149271.31;;;7.18;100.00
12358;BME280;6243;51.244;6.774;2023-02-16T05:05:28;149195.28;;;6.88;100.00
12358;BME280;6243;51.244;6.774;2023-02-16T05:07:53;149199.06;;;6.89;100.00
12358;BME280;6243;51.244;6.774;2023-02-16T05:10:19;149188.94;;;6.85;100.00
12358;BME280;6243;51.244;6.774;2023-02-16T05:12:45;149110.41;;;6.54;100.00
12358;BME280;6243;51.244;6.774;2023-02-16T05:15:12;149092.69;;;6.47;100.00
12358;BME280;6243;51.244;6.774;2023-02-16T05:17:37;149191.50;;;6.86;100.00
12358;BME280;6243;51.244;6.774;2023-02-16T05:20:03;149187.66;;;6.85;100.00
12358;BME280;6243;51.244;6.774;2023-02-16T05:22:29;149273.81;;;7.19;100.00
12358;BME280;6243;51.244;6.774;2023-02-16T05:24:55;149213.00;;;6.95;100.00
12358;BME280;6243;51.244;6.774;2023-02-16T05:27:22;149139.53;;;6.66;100.00
12358;BME280;6243;51.244;6.774;2023-02-16T05:29:47;149111.69;;;6.55;100.00
12358;BME280;6243;51.244;6.774;2023-02-16T05:32:15;149154.72;;;6.72;100.00
12358;BME280;6243;51.244;6.774;2023-02-16T05:34:40;149102.78;;;6.51;100.00
12358;BME280;6243;51.244;6.774;2023-02-16T05:37:06;149096.47;;;6.49;100.00
12358;BME280;6243;51.244;6.774;2023-02-16T05:39:32;149126.88;;;6.61;100.00
12358;BME280;6243;51.244;6.774;2023-02-16T05:41:57;149180.09;;;6.82;100.00
12358;BME280;6243;51.244;6.774;2023-02-16T05:44:23;149107.84;;;6.53;100.00
12358;BME280;6243;51.244;6.774;2023-02-16T05:46:48;149166.13;;;6.76;100.00
12358;BME280;6243;51.244;6.774;2023-02-16T05:49:15;149126.88;;;6.61;100.00
12358;BME280;6243;51.244;6.774;2023-02-16T05:51:41;149083.78;;;6.43;100.00
12358;BME280;6243;51.244;6.774;2023-02-16T05:54:07;149180.09;;;6.82;100.00
12358;BME280;6243;51.244;6.774;2023-02-16T05:56:33;149201.63;;;6.90;100.00
12358;BME280;6243;51.244;6.774;2023-02-16T05:58:59;149164.84;;;6.76;100.00
12358;BME280;6243;51.244;6.774;2023-02-16T06:01:24;149147.13;;;6.69;100.00
12358;BME280;6243;51.244;6.774;2023-02-16T06:03:50;149213.00;;;6.95;100.00
12358;BME280;6243;51.244;6.774;2023-02-16T06:06:17;149200.34;;;6.90;100.00
12358;BME280;6243;51.244;6.774;2023-02-16T06:08:44;149192.72;;;6.87;100.00
12358;BME280;6243;51.244;6.774;2023-02-16T06:11:10;149238.38;;;7.05;100.00
12358;BME280;6243;51.244;6.774;2023-02-16T06:13:36;149167.41;;;6.77;100.00
12358;BME280;6243;51.244;6.774;2023-02-16T06:16:02;149256.06;;;7.12;100.00
12358;BME280;6243;51.244;6.774;2023-02-16T06:18:28;149177.53;;;6.81;100.00
12358;BME280;6243;51.244;6.774;2023-02-16T06:20:55;149233.25;;;7.03;100.00
12358;BME280;6243;51.244;6.774;2023-02-16T06:23:22;149248.50;;;7.09;100.00
12358;BME280;6243;51.244;6.774;2023-02-16T06:25:49;149287.78;;;7.25;100.00
12358;BME280;6243;51.244;6.774;2023-02-16T06:28:15;149253.56;;;7.11;100.00
12358;BME280;6243;51.244;6.774;2023-02-16T06:30:40;149213.00;;;6.95;100.00
12358;BME280;6243;51.244;6.774;2023-02-16T06:33:06;149284.00;;;7.23;100.00
12358;BME280;6243;51.244;6.774;2023-02-16T06:35:31;149164.84;;;6.76;100.00
12358;BME280;6243;51.244;6.774;2023-02-16T06:37:57;149229.47;;;7.01;100.00
12358;BME280;6243;51.244;6.774;2023-02-16T06:40:24;149234.53;;;7.03;100.00
12358;BME280;6243;51.244;6.774;2023-02-16T06:42:49;149235.81;;;7.04;100.00
12358;BME280;6243;51.244;6.774;2023-02-16T06:45:15;149295.41;;;7.28;100.00
12358;BME280;6243;51.244;6.774;2023-02-16T06:47:41;149158.50;;;6.73;100.00
12358;BME280;6243;51.244;6.774;2023-02-16T06:50:07;149144.59;;;6.68;100.00
12358;BME280;6243;51.244;6.774;2023-02-16T06:52:33;149263.69;;;7.15;100.00
12358;BME280;6243;51.244;6.774;2023-02-16T06:54:58;149230.75;;;7.02;100.00
12358;BME280;6243;51.244;6.774;2023-02-16T06:57:25;149133.22;;;6.63;100.00
12358;BME280;6243;51.244;6.774;2023-02-16T06:59:51;149196.56;;;6.88;100.00
12358;BME280;6243;51.244;6.774;2023-02-16T07:02:16;149206.69;;;6.92;100.00
12358;BME280;6243;51.244;6.774;2023-02-16T07:04:42;149133.22;;;6.63;100.00
12358;BME280;6243;51.244;6.774;2023-02-16T07:07:07;149206.69;;;6.92;100.00
12358;BME280;6243;51.244;6.774;2023-02-16T07:09:35;149263.69;;;7.15;100.00
12358;BME280;6243;51.244;6.774;2023-02-16T07:12:00;149177.53;;;6.81;100.00
12358;BME280;6243;51.244;6.774;2023-02-16T07:14:27;149139.53;;;6.66;100.00
12358;BME280;6243;51.244;6.774;2023-02-16T07:16:52;149157.28;;;6.73;100.00
12358;BME280;6243;51.244;6.774;2023-02-16T07:19:18;149218.09;;;6.97;100.00
12358;BME280;6243;51.244;6.774;2023-02-16T07:21:43;149223.13;;;6.99;100.00
12358;BME280;6243;51.244;6.774;2023-02-16T07:24:09;149202.88;;;6.91;100.00
12358;BME280;6243;51.244;6.774;2023-02-16T07:26:35;149305.53;;;7.32;100.00
12358;BME280;6243;51.244;6.774;2023-02-16T07:29:00;149309.31;;;7.33;100.00
12358;BME280;6243;51.244;6.774;2023-02-16T07:31:27;149232.03;;;7.02;100.00
12358;BME280;6243;51.244;6.774;2023-02-16T07:33:53;149201.63;;;6.90;100.00
12358;BME280;6243;51.244;6.774;2023-02-16T07:36:18;149187.66;;;6.85;100.00
12358;BME280;6243;51.244;6.774;2023-02-16T07:38:44;149215.53;;;6.96;100.00
12358;BME280;6243;51.244;6.774;2023-02-16T07:41:09;149228.19;;;7.01;100.00
12358;BME280;6243;51.244;6.774;2023-02-16T07:43:36;149181.31;;;6.82;100.00
12358;BME280;6243;51.244;6.774;2023-02-16T07:46:01;149200.34;;;6.90;100.00
12358;BME280;6243;51.244;6.774;2023-02-16T07:48:28;149214.28;;;6.95;100.00
12358;BME280;6243;51.244;6.774;2023-02-16T07:50:54;149195.28;;;6.88;100.00
12358;BME280;6243;51.244;6.774;2023-02-16T07:53:19;149242.16;;;7.06;100.00
12358;BME280;6243;51.244;6.774;2023-02-16T07:55:45;149284.00;;;7.23;100.00
12358;BME280;6243;51.244;6.774;2023-02-16T07:58:11;149259.91;;;7.13;100.00
12358;BME280;6243;51.244;6.774;2023-02-16T08:00:37;149253.56;;;7.11;100.00
12358;BME280;6243;51.244;6.774;2023-02-16T08:03:03;149259.91;;;7.13;100.00
12358;BME280;6243;51.244;6.774;2023-02-16T08:05:30;149295.41;;;7.28;100.00
12358;BME280;6243;51.244;6.774;2023-02-16T08:07:55;149224.41;;;6.99;100.00
12358;BME280;6243;51.244;6.774;2023-02-16T08:10:21;149256.06;;;7.12;100.00
12358;BME280;6243;51.244;6.774;2023-02-16T08:12:46;149330.84;;;7.42;100.00
12358;BME280;6243;51.244;6.774;2023-02-16T08:15:12;149278.88;;;7.21;100.00
12358;BME280;6243;51.244;6.774;2023-02-16T08:17:37;149289.06;;;7.25;100.00
12358;BME280;6243;51.244;6.774;2023-02-16T08:20:05;149224.41;;;6.99;100.00
12358;BME280;6243;51.244;6.774;2023-02-16T08:22:32;149295.41;;;7.28;100.00
12358;BME280;6243;51.244;6.774;2023-02-16T08:24:58;149210.47;;;6.94;100.00
12358;BME280;6243;51.244;6.774;2023-02-16T08:27:23;149240.88;;;7.06;100.00
12358;BME280;6243;51.244;6.774;2023-02-16T08:29:49;149268.75;;;7.17;100.00
12358;BME280;6243;51.244;6.774;2023-02-16T08:32:14;149332.13;;;7.42;100.00
12358;BME280;6243;51.244;6.774;2023-02-16T08:34:40;149319.44;;;7.37;100.00
12358;BME280;6243;51.244;6.774;2023-02-16T08:37:05;149366.34;;;7.56;100.00
12358;BME280;6243;51.244;6.774;2023-02-16T08:39:32;149381.59;;;7.62;100.00
12358;BME280;6243;51.244;6.774;2023-02-16T08:41:59;149292.84;;;7.27;100.00
12358;BME280;6243;51.244;6.774;2023-02-16T08:44:26;149316.94;;;7.36;100.00
12358;BME280;6243;51.244;6.774;2023-02-16T08:46:54;149360.00;;;7.53;100.00
12358;BME280;6243;51.244;6.774;2023-02-16T08:49:22;149352.44;;;7.50;100.00
12358;BME280;6243;51.244;6.774;2023-02-16T08:51:50;149398.06;;;7.68;100.00
12358;BME280;6243;51.244;6.774;2023-02-16T08:54:17;149474.13;;;7.99;100.00
12358;BME280;6243;51.244;6.774;2023-02-16T08:56:45;149408.19;;;7.72;100.00
12358;BME280;6243;51.244;6.774;2023-02-16T08:59:11;149486.81;;;8.04;100.00
12358;BME280;6243;51.244;6.774;2023-02-16T09:01:39;149469.06;;;7.97;100.00
12358;BME280;6243;51.244;6.774;2023-02-16T09:04:04;149457.63;;;7.92;100.00
12358;BME280;6243;51.244;6.774;2023-02-16T09:06:30;149498.22;;;8.08;100.00
12358;BME280;6243;51.244;6.774;2023-02-16T09:08:56;149626.41;;;8.59;100.00
12358;BME280;6243;51.244;6.774;2023-02-16T09:11:23;149626.41;;;8.59;100.00
12358;BME280;6243;51.244;6.774;2023-02-16T09:13:50;149583.25;;;8.42;100.00
12358;BME280;6243;51.244;6.774;2023-02-16T09:16:18;149647.97;;;8.68;100.00
12358;BME280;6243;51.244;6.774;2023-02-16T09:18:44;149556.63;;;8.31;100.00
12358;BME280;6243;51.244;6.774;2023-02-16T09:21:11;149546.50;;;8.27;100.00
12358;BME280;6243;51.244;6.774;2023-02-16T09:23:38;149641.63;;;8.65;100.00
12358;BME280;6243;51.244;6.774;2023-02-16T09:26:04;149673.38;;;8.78;100.00
12358;BME280;6243;51.244;6.774;2023-02-16T09:28:30;149661.94;;;8.73;100.00
12358;BME280;6243;51.244;6.774;2023-02-16T09:30:57;149628.97;;;8.60;100.00
12358;BME280;6243;51.244;6.774;2023-02-16T09:33:22;149601.00;;;8.49;100.00
12358;BME280;6243;51.244;6.774;2023-02-16T09:35:48;149660.66;;;8.73;100.00
12358;BME280;6243;51.244;6.774;2023-02-16T09:38:13;149711.44;;;8.93;100.00
12358;BME280;6243;51.244;6.774;2023-02-16T09:40:39;149644.19;;;8.66;100.00
12358;BME280;6243;51.244;6.774;2023-02-16T09:43:10;149679.72;;;8.80;100.00
12358;BME280;6243;51.244;6.774;2023-02-16T09:45:41;149746.97;;;9.07;100.00
12358;BME280;6243;51.244;6.774;2023-02-16T09:48:18;149675.88;;;8.79;100.00
12358;BME280;6243;51.244;6.774;2023-02-16T09:50:45;149735.56;;;9.02;100.00
12358;BME280;6243;51.244;6.774;2023-02-16T09:53:18;149694.94;;;8.86;100.00
12358;BME280;6243;51.244;6.774;2023-02-16T09:55:49;149766.03;;;9.14;100.00
12358;BME280;6243;51.244;6.774;2023-02-16T09:58:19;149687.31;;;8.83;100.00
12358;BME280;6243;51.244;6.774;2023-02-16T10:00:50;149721.56;;;8.97;100.00
12358;BME280;6243;51.244;6.774;2023-02-16T10:03:37;149740.63;;;9.04;100.00
12358;BME280;6243;51.244;6.774;2023-02-16T10:06:21;149760.97;;;9.12;100.00
12358;BME280;6243;51.244;6.774;2023-02-16T10:08:54;149779.97;;;9.20;100.00
12358;BME280;6243;51.244;6.774;2023-02-16T10:11:23;149713.97;;;8.94;100.00
12358;BME280;6243;51.244;6.774;2023-02-16T10:13:53;149735.56;;;9.02;100.00
12358;BME280;6243;51.244;6.774;2023-02-16T10:16:26;149622.63;;;8.57;100.00
12358;BME280;6243;51.244;6.774;2023-02-16T10:18:55;149720.34;;;8.96;100.00
12358;BME280;6243;51.244;6.774;2023-02-16T10:21:25;149692.41;;;8.85;100.00
12358;BME280;6243;51.244;6.774;2023-02-16T10:23:55;149697.50;;;8.87;100.00
12358;BME280;6243;51.244;6.774;2023-02-16T10:26:27;149696.22;;;8.87;100.00
12358;BME280;6243;51.244;6.774;2023-02-16T10:28:58;149815.53;;;9.34;100.00
12358;BME280;6243;51.244;6.774;2023-02-16T10:31:28;149849.81;;;9.48;100.00
12358;BME280;6243;51.244;6.774;2023-02-16T10:34:11;149792.66;;;9.25;100.00
12358;BME280;6243;51.244;6.774;2023-02-16T10:36:58;149844.72;;;9.46;100.00
12358;BME280;6243;51.244;6.774;2023-02-16T10:39:34;149783.81;;;9.21;100.00
12358;BME280;6243;51.244;6.774;2023-02-16T10:42:05;149736.84;;;9.03;100.00
12358;BME280;6243;51.244;6.774;2023-02-16T10:44:38;149834.59;;;9.42;100.00
12358;BME280;6243;51.244;6.774;2023-02-16T10:47:14;149884.09;;;9.61;100.00
12358;BME280;6243;51.244;6.774;2023-02-16T10:49:46;149906.94;;;9.70;100.00
12358;BME280;6243;51.244;6.774;2023-02-16T10:52:12;149879.00;;;9.59;100.00
12358;BME280;6243;51.244;6.774;2023-02-16T10:54:38;149882.81;;;9.61;100.00
12358;BME280;6243;51.244;6.774;2023-02-16T10:57:06;149886.66;;;9.62;100.00
12358;BME280;6243;51.244;6.774;2023-02-16T10:59:39;149898.06;;;9.67;100.00
12358;BME280;6243;51.244;6.774;2023-02-16T11:02:17;149936.16;;;9.82;100.00
12358;BME280;6243;51.244;6.774;2023-02-16T11:04:46;149956.50;;;9.90;100.00
12358;BME280;6243;51.244;6.774;2023-02-16T11:07:13;149943.78;;;9.85;100.00
12358;BME280;6243;51.244;6.774;2023-02-16T11:09:41;149922.22;;;9.76;100.00
12358;BME280;6243;51.244;6.774;2023-02-16T11:12:22;149988.25;;;10.02;100.00
12358;BME280;6243;51.244;6.774;2023-02-16T11:14:50;149957.75;;;9.90;100.00
12358;BME280;6243;51.244;6.774;2023-02-16T11:17:17;150053.09;;;10.28;100.00
12358;BME280;6243;51.244;6.774;2023-02-16T11:19:50;150044.19;;;10.25;100.00
12358;BME280;6243;51.244;6.774;2023-02-16T11:22:26;150020.06;;;10.15;100.00
12358;BME280;6243;51.244;6.774;2023-02-16T11:24:52;150054.38;;;10.29;100.00
12358;BME280;6243;51.244;6.774;2023-02-16T11:27:19;150048.03;;;10.26;100.00
12358;BME280;6243;51.244;6.774;2023-02-16T11:29:45;150040.38;;;10.23;100.00
12358;BME280;6243;51.244;6.774;2023-02-16T11:32:12;150070.91;;;10.35;100.00
12358;BME280;6243;51.244;6.774;2023-02-16T11:34:40;150111.56;;;10.51;100.00
12358;BME280;6243;51.244;6.774;2023-02-16T11:37:13;150064.53;;;10.33;100.00
12358;BME280;6243;51.244;6.774;2023-02-16T11:39:47;150053.09;;;10.28;100.00
12358;BME280;6243;51.244;6.774;2023-02-16T11:42:27;150135.69;;;10.61;100.00
12358;BME280;6243;51.244;6.774;2023-02-16T11:44:54;150114.06;;;10.52;100.00
12358;BME280;6243;51.244;6.774;2023-02-16T11:47:23;150112.78;;;10.52;100.00
12358;BME280;6243;51.244;6.774;2023-02-16T11:49:50;150096.28;;;10.45;100.00
12358;BME280;6243;51.244;6.774;2023-02-16T11:52:30;150084.84;;;10.41;100.00
12358;BME280;6243;51.244;6.774;2023-02-16T11:54:57;150130.59;;;10.59;100.00
12358;BME280;6243;51.244;6.774;2023-02-16T11:57:25;150109.00;;;10.50;100.00
12358;BME280;6243;51.244;6.774;2023-02-16T11:59:51;150086.13;;;10.41;100.00
12358;BME280;6243;51.244;6.774;2023-02-16T12:05:26;150100.13;;;10.47;100.00
12358;BME280;6243;51.244;6.774;2023-02-16T12:08:15;150084.84;;;10.41;100.00
12358;BME280;6243;51.244;6.774;2023-02-16T12:10:58;150157.31;;;10.69;100.00
12358;BME280;6243;51.244;6.774;2023-02-16T12:13:37;150144.59;;;10.64;100.00
12358;BME280;6243;51.244;6.774;2023-02-16T12:16:15;150150.97;;;10.67;100.00
12358;BME280;6243;51.244;6.774;2023-02-16T12:18:49;150173.84;;;10.76;100.00
12358;BME280;6243;51.244;6.774;2023-02-16T12:21:22;150241.19;;;11.03;100.00
12358;BME280;6243;51.244;6.774;2023-02-16T12:24:02;150225.97;;;10.97;100.00
12358;BME280;6243;51.244;6.774;2023-02-16T12:26:39;150248.84;;;11.06;100.00
12358;BME280;6243;51.244;6.774;2023-02-16T12:29:15;150241.19;;;11.03;100.00
12358;BME280;6243;51.244;6.774;2023-02-16T12:31:54;150232.31;;;10.99;100.00
12358;BME280;6243;51.244;6.774;2023-02-16T12:34:27;150246.28;;;11.05;100.00
12358;BME280;6243;51.244;6.774;2023-02-16T12:36:59;150223.41;;;10.96;100.00
12358;BME280;6243;51.244;6.774;2023-02-16T12:39:35;150252.66;;;11.07;100.00
12358;BME280;6243;51.244;6.774;2023-02-16T12:45:08;150279.38;;;11.18;100.00
12358;BME280;6243;51.244;6.774;2023-02-16T12:47:41;150289.53;;;11.22;100.00
12358;BME280;6243;51.244;6.774;2023-02-16T12:50:15;150328.97;;;11.37;100.00
12358;BME280;6243;51.244;6.774;2023-02-16T12:52:47;150330.25;;;11.38;100.00
12358;BME280;6243;51.244;6.774;2023-02-16T12:55:20;150365.84;;;11.52;100.00
12358;BME280;6243;51.244;6.774;2023-02-16T12:57:54;150340.41;;;11.42;100.00
12358;BME280;6243;51.244;6.774;2023-02-16T13:00:25;150335.31;;;11.40;100.00
12358;BME280;6243;51.244;6.774;2023-02-16T13:03:01;150353.13;;;11.47;100.00
12358;BME280;6243;51.244;6.774;2023-02-16T13:05:35;150410.41;;;11.70;100.00
12358;BME280;6243;51.244;6.774;2023-02-16T13:08:11;150406.56;;;11.68;100.00
12358;BME280;6243;51.244;6.774;2023-02-16T13:10:50;150309.88;;;11.30;100.00